createdAt,value
2019-05-26T00:02:21.480Z,99.90
2019-05-26T00:04:50.102Z,99.90
2019-05-26T00:07:30.159Z,99.90
2019-05-26T00:09:49.041Z,99.90
2019-05-26T00:12:19.886Z,99.90
2019-05-26T00:14:48.490Z,99.90
2019-05-26T00:17:17.072Z,99.90
2019-05-26T00:19:45.696Z,99.90
2019-05-26T00:22:14.480Z,99.90
2019-05-26T00:24:43.114Z,99.90
2019-05-26T00:27:11.798Z,99.90
2019-05-26T00:29:40.488Z,99.90
2019-05-26T00:32:09.174Z,99.90
2019-05-26T00:34:37.865Z,99.90
2019-05-26T00:37:06.572Z,99.90
2019-05-26T00:39:35.154Z,99.90
2019-05-26T00:42:04.063Z,99.90
2019-05-26T00:44:32.718Z,99.90
2019-05-26T00:47:01.347Z,99.90
2019-05-26T00:49:30.118Z,99.90
2019-05-26T00:51:58.850Z,99.90
2019-05-26T00:54:27.638Z,99.90
2019-05-26T00:56:56.478Z,99.90
2019-05-26T00:59:25.086Z,99.90
2019-05-26T01:01:53.694Z,99.90
2019-05-26T01:04:22.389Z,99.90
2019-05-26T01:06:51.093Z,99.90
2019-05-26T01:09:21.294Z,99.90
2019-05-26T01:11:49.920Z,99.90
2019-05-26T01:14:18.520Z,99.90
2019-05-26T01:16:47.204Z,99.90
2019-05-26T01:19:15.860Z,99.90
2019-05-26T01:21:44.557Z,99.90
2019-05-26T01:24:13.215Z,99.90
2019-05-26T01:26:41.917Z,99.90
2019-05-26T01:29:10.579Z,99.90
2019-05-26T01:31:39.164Z,99.90
2019-05-26T01:34:07.810Z,99.90
2019-05-26T01:36:37.024Z,99.90
2019-05-26T01:39:07.643Z,99.90
2019-05-26T01:41:36.338Z,99.90
2019-05-26T01:44:05.394Z,99.90
2019-05-26T01:46:34.332Z,99.90
2019-05-26T01:49:02.890Z,99.90
2019-05-26T01:51:31.594Z,99.90
2019-05-26T01:54:00.360Z,99.90
2019-05-26T01:56:28.946Z,99.90
2019-05-26T01:58:57.641Z,99.90
2019-05-26T02:01:26.476Z,99.90
2019-05-26T02:03:55.168Z,99.90
2019-05-26T02:06:23.854Z,99.90
2019-05-26T02:08:52.548Z,99.90
2019-05-26T02:11:21.113Z,99.90
2019-05-26T02:13:50.036Z,99.90
2019-05-26T02:16:18.679Z,99.90
2019-05-26T02:18:47.410Z,99.90
2019-05-26T02:21:16.084Z,99.90
2019-05-26T02:23:44.886Z,99.90
2019-05-26T02:26:13.505Z,99.90
2019-05-26T02:28:42.263Z,99.90
2019-05-26T02:31:10.843Z,99.90
2019-05-26T02:33:39.727Z,99.90
2019-05-26T02:36:08.354Z,99.90
2019-05-26T02:38:36.955Z,99.90
2019-05-26T02:41:05.699Z,99.90
2019-05-26T02:43:34.461Z,99.90
2019-05-26T02:46:03.099Z,99.90
2019-05-26T02:48:31.888Z,99.90
2019-05-26T02:51:00.488Z,99.90
2019-05-26T02:53:29.120Z,99.90
2019-05-26T02:55:58.274Z,99.90
2019-05-26T02:58:27.077Z,99.90
2019-05-26T03:00:55.812Z,99.90
2019-05-26T03:03:24.737Z,99.90
2019-05-26T03:05:53.966Z,99.90
2019-05-26T03:08:23.358Z,99.90
2019-05-26T03:10:53.194Z,99.90
2019-05-26T03:13:21.856Z,99.90
2019-05-26T03:15:51.992Z,99.90
2019-05-26T03:18:20.580Z,99.90
2019-05-26T03:20:49.269Z,99.90
2019-05-26T03:23:18.042Z,99.90
2019-05-26T03:25:46.824Z,99.90
2019-05-26T03:28:15.464Z,99.90
2019-05-26T03:30:44.209Z,99.90
2019-05-26T03:33:12.798Z,99.90
2019-05-26T03:35:41.478Z,99.90
2019-05-26T03:38:10.278Z,99.90
2019-05-26T03:40:38.940Z,99.90
2019-05-26T03:43:07.731Z,99.90
2019-05-26T03:45:45.107Z,99.90
2019-05-26T03:48:13.780Z,99.90
2019-05-26T03:50:42.423Z,99.90
2019-05-26T03:53:11.124Z,99.90
2019-05-26T03:55:39.869Z,99.90
2019-05-26T03:58:08.454Z,99.90
2019-05-26T04:00:37.199Z,99.90
2019-05-26T04:03:05.859Z,99.90
2019-05-26T04:05:34.540Z,99.90
2019-05-26T04:08:04.673Z,99.90
2019-05-26T04:10:33.545Z,99.90
2019-05-26T04:13:02.163Z,99.90
2019-05-26T04:15:30.949Z,99.90
2019-05-26T04:17:59.808Z,99.90
2019-05-26T04:20:28.656Z,99.90
2019-05-26T04:22:57.425Z,99.90
2019-05-26T04:25:26.138Z,99.90
2019-05-26T04:27:54.934Z,99.90
2019-05-26T04:30:23.706Z,99.90
2019-05-26T04:32:52.373Z,95.00
2019-05-26T04:35:21.111Z,91.60
2019-05-26T04:37:49.954Z,90.20
2019-05-26T04:40:26.275Z,88.10
2019-05-26T04:42:48.913Z,86.40
2019-05-26T04:45:17.626Z,84.10
2019-05-26T04:47:46.276Z,83.00
2019-05-26T04:50:15.329Z,81.90
2019-05-26T04:53:02.071Z,83.50
2019-05-26T04:55:14.355Z,85.50
2019-05-26T04:57:43.145Z,84.80
2019-05-26T05:00:12.693Z,85.60
2019-05-26T05:02:41.623Z,88.00
2019-05-26T05:05:10.752Z,88.90
2019-05-26T05:07:39.379Z,91.40
2019-05-26T05:10:09.119Z,91.90
2019-05-26T05:12:38.470Z,86.80
2019-05-26T05:15:09.069Z,82.20
2019-05-26T05:17:37.771Z,88.00
2019-05-26T05:20:08.039Z,93.00
2019-05-26T05:22:36.766Z,96.00
2019-05-26T05:25:14.567Z,96.80
2019-05-26T05:27:39.848Z,95.40
2019-05-26T05:30:10.106Z,95.40
2019-05-26T05:32:38.858Z,93.60
2019-05-26T05:35:08.747Z,91.00
2019-05-26T05:37:37.466Z,92.70
2019-05-26T05:40:07.481Z,89.70
2019-05-26T05:42:36.199Z,91.70
2019-05-26T05:45:06.600Z,90.40
2019-05-26T05:47:35.179Z,91.80
2019-05-26T05:50:06.631Z,91.80
2019-05-26T05:52:35.447Z,93.20
2019-05-26T05:55:04.741Z,95.10
2019-05-26T05:58:14.413Z,94.50
2019-05-26T06:04:11.924Z,93.40
2019-05-26T06:06:39.808Z,93.80
2019-05-26T06:09:09.377Z,97.00
2019-05-26T06:11:38.018Z,97.30
2019-05-26T06:14:06.743Z,95.50
2019-05-26T06:16:35.441Z,94.60
2019-05-26T06:19:04.177Z,93.90
2019-05-26T06:21:32.866Z,92.30
2019-05-26T06:24:01.530Z,93.10
2019-05-26T06:26:30.171Z,94.10
2019-05-26T06:28:58.745Z,92.20
2019-05-26T06:31:27.484Z,93.20
2019-05-26T06:33:56.269Z,90.70
2019-05-26T06:36:24.855Z,87.30
2019-05-26T06:38:53.588Z,84.30
2019-05-26T06:41:32.819Z,84.50
2019-05-26T06:43:54.138Z,82.20
2019-05-26T06:46:22.863Z,79.20
2019-05-26T06:48:51.642Z,79.50
2019-05-26T06:51:20.249Z,85.00
2019-05-26T06:53:48.899Z,86.30
2019-05-26T06:56:17.479Z,89.00
2019-05-26T06:58:46.109Z,90.50
2019-05-26T07:01:14.798Z,90.60
2019-05-26T07:03:43.483Z,89.60
2019-05-26T07:06:12.315Z,88.20
2019-05-26T07:08:40.976Z,88.00
2019-05-26T07:11:09.675Z,89.50
2019-05-26T07:13:38.325Z,90.40
2019-05-26T07:16:08.472Z,89.70
2019-05-26T07:18:37.126Z,85.50
2019-05-26T07:21:05.773Z,87.70
2019-05-26T07:23:34.373Z,84.00
2019-05-26T07:26:02.979Z,83.60
2019-05-26T07:28:31.935Z,83.50
2019-05-26T07:31:00.556Z,80.90
2019-05-26T07:33:29.164Z,83.90
2019-05-26T07:35:59.332Z,85.60
2019-05-26T07:38:27.966Z,81.90
2019-05-26T07:40:56.596Z,78.30
2019-05-26T07:43:28.034Z,71.40
2019-05-26T07:45:55.813Z,65.10
2019-05-26T07:48:24.443Z,67.60
2019-05-26T07:50:53.015Z,70.80
2019-05-26T07:53:21.668Z,70.60
2019-05-26T07:55:50.333Z,66.80
2019-05-26T07:58:19.070Z,62.40
2019-05-26T08:00:47.701Z,61.70
2019-05-26T08:03:16.339Z,59.60
2019-05-26T08:05:45.011Z,60.10
2019-05-26T08:08:13.837Z,60.80
2019-05-26T08:10:42.659Z,65.30
2019-05-26T08:13:11.343Z,65.30
2019-05-26T08:15:40.409Z,63.80
2019-05-26T08:18:09.054Z,65.50
2019-05-26T08:20:42.131Z,61.70
2019-05-26T08:23:10.833Z,61.70
2019-05-26T08:25:42.548Z,65.70
2019-05-26T08:28:11.703Z,65.70
2019-05-26T08:30:40.301Z,64.30
2019-05-26T08:33:09.004Z,62.30
2019-05-26T08:35:37.638Z,62.90
2019-05-26T08:38:06.243Z,62.80
2019-05-26T08:40:34.867Z,64.30
2019-05-26T08:43:03.626Z,67.50
2019-05-26T08:45:32.277Z,69.40
2019-05-26T08:48:01.120Z,68.30
2019-05-26T08:50:29.864Z,66.90
2019-05-26T08:52:58.601Z,67.70
2019-05-26T08:55:27.285Z,67.30
2019-05-26T08:57:55.934Z,67.90
2019-05-26T09:00:25.896Z,67.80
2019-05-26T09:02:54.601Z,70.70
2019-05-26T09:05:26.061Z,74.30
2019-05-26T09:07:54.703Z,72.40
2019-05-26T09:10:23.474Z,69.10
2019-05-26T09:13:00.613Z,67.10
2019-05-26T09:15:22.529Z,65.80
2019-05-26T09:17:51.241Z,71.40
2019-05-26T09:20:20.095Z,67.00
2019-05-26T09:22:48.673Z,66.70
2019-05-26T09:25:17.503Z,67.20
2019-05-26T09:27:46.215Z,71.50
2019-05-26T09:30:16.766Z,71.10
2019-05-26T09:32:58.126Z,69.40
2019-05-26T09:35:25.899Z,70.80
2019-05-26T09:37:54.624Z,70.70
2019-05-26T09:40:23.510Z,70.10
2019-05-26T09:42:52.273Z,69.20
2019-05-26T09:45:21.547Z,67.60
2019-05-26T09:47:50.439Z,67.20
2019-05-26T09:50:19.764Z,64.30
2019-05-26T09:52:51.913Z,61.70
2019-05-26T09:55:20.936Z,63.00
2019-05-26T09:57:49.749Z,64.70
2019-05-26T10:00:20.258Z,64.50
2019-05-26T10:02:49.008Z,63.50
2019-05-26T10:05:17.722Z,69.00
2019-05-26T10:07:46.437Z,74.50
2019-05-26T10:10:15.247Z,71.70
2019-05-26T10:12:43.971Z,69.10
2019-05-26T10:15:13.813Z,67.80
2019-05-26T10:17:42.523Z,68.90
2019-05-26T10:20:11.800Z,65.40
2019-05-26T10:22:40.468Z,65.30
2019-05-26T10:25:09.338Z,66.10
2019-05-26T10:27:37.974Z,64.30
2019-05-26T10:30:09.388Z,69.20
2019-05-26T10:32:38.177Z,67.50
2019-05-26T10:35:08.014Z,67.00
2019-05-26T10:37:36.686Z,69.90
2019-05-26T10:40:06.385Z,71.00
2019-05-26T10:42:34.976Z,69.80
2019-05-26T10:45:08.297Z,66.40
2019-05-26T10:47:37.032Z,69.40
2019-05-26T10:50:10.578Z,71.70
2019-05-26T10:52:39.301Z,75.60
2019-05-26T10:55:08.948Z,72.80
2019-05-26T10:57:37.726Z,68.40
2019-05-26T11:00:10.740Z,69.30
2019-05-26T11:02:39.414Z,69.30
2019-05-26T11:05:09.671Z,68.90
2019-05-26T11:07:38.569Z,67.70
2019-05-26T11:10:08.171Z,63.80
2019-05-26T11:12:37.034Z,65.90
2019-05-26T11:15:08.358Z,72.20
2019-05-26T11:17:37.050Z,71.70
2019-05-26T11:20:08.779Z,69.60
2019-05-26T11:22:37.420Z,69.20
2019-05-26T11:25:07.890Z,65.30
2019-05-26T11:27:36.531Z,65.90
2019-05-26T11:30:10.782Z,69.20
2019-05-26T11:32:39.744Z,66.90
2019-05-26T11:35:09.088Z,66.90
2019-05-26T11:37:37.848Z,66.60
2019-05-26T11:40:07.827Z,64.70
2019-05-26T11:42:36.642Z,64.20
2019-05-26T11:45:09.906Z,66.00
2019-05-26T11:47:38.513Z,62.80
2019-05-26T11:50:07.644Z,63.80
2019-05-26T11:52:36.466Z,65.40
2019-05-26T11:55:08.754Z,64.10
2019-05-26T11:57:37.733Z,63.80
2019-05-26T12:00:08.428Z,61.80
2019-05-26T12:02:37.582Z,61.90
2019-05-26T12:05:07.344Z,62.50
2019-05-26T12:07:36.162Z,65.90
2019-05-26T12:10:08.394Z,68.80
2019-05-26T12:12:37.142Z,65.30
2019-05-26T12:15:10.119Z,62.40
2019-05-26T12:17:38.866Z,61.40
2019-05-26T12:20:07.858Z,62.50
2019-05-26T12:22:38.060Z,60.50
2019-05-26T12:25:08.207Z,63.20
2019-05-26T12:27:37.049Z,65.20
2019-05-26T12:30:10.898Z,62.70
2019-05-26T12:32:39.584Z,60.30
2019-05-26T12:35:09.841Z,61.90
2019-05-26T12:37:38.611Z,61.70
2019-05-26T12:40:08.688Z,60.30
2019-05-26T12:42:37.250Z,62.10
2019-05-26T12:45:08.221Z,63.30
2019-05-26T12:47:36.995Z,60.80
2019-05-26T12:50:08.998Z,60.00
2019-05-26T12:52:38.044Z,58.50
2019-05-26T12:55:09.676Z,59.20
2019-05-26T12:57:39.050Z,57.90
2019-05-26T13:00:09.604Z,58.50
2019-05-26T13:02:38.253Z,59.60
2019-05-26T13:05:08.247Z,60.70
2019-05-26T13:10:30.577Z,60.40
2019-05-26T13:12:59.308Z,61.00
2019-05-26T13:15:28.533Z,62.10
2019-05-26T13:17:57.312Z,62.70
2019-05-26T13:20:30.622Z,63.10
2019-05-26T13:22:59.468Z,62.10
2019-05-26T13:25:28.322Z,61.40
2019-05-26T13:27:57.106Z,59.90
2019-05-26T13:30:26.954Z,59.80
2019-05-26T13:32:56.188Z,60.80
2019-05-26T13:35:25.026Z,60.40
2019-05-26T13:37:53.808Z,61.50
2019-05-26T13:40:22.737Z,61.00
2019-05-26T13:42:51.908Z,61.00
2019-05-26T13:45:22.829Z,60.70
2019-05-26T13:47:51.404Z,59.00
2019-05-26T13:50:20.656Z,59.50
2019-05-26T13:52:49.427Z,59.40
2019-05-26T13:55:18.477Z,60.20
2019-05-26T13:57:49.631Z,61.60
2019-05-26T14:00:19.245Z,59.80
2019-05-26T14:02:48.677Z,61.20
2019-05-26T14:05:20.829Z,61.00
2019-05-26T14:07:49.631Z,60.50
2019-05-26T14:10:37.986Z,60.30
2019-05-26T14:13:07.520Z,59.40
2019-05-26T14:15:38.768Z,59.80
2019-05-26T14:18:07.345Z,59.10
2019-05-26T14:20:38.710Z,59.90
2019-05-26T14:23:08.538Z,59.90
2019-05-26T14:25:38.126Z,60.10
2019-05-26T14:28:07.985Z,60.70
2019-05-26T14:30:36.709Z,59.40
2019-05-26T14:33:05.607Z,58.00
2019-05-26T14:35:34.366Z,57.70
2019-05-26T14:38:03.166Z,61.10
2019-05-26T14:40:31.904Z,62.30
2019-05-26T14:43:00.675Z,61.00
2019-05-26T14:45:29.302Z,59.70
2019-05-26T14:47:58.302Z,59.60
2019-05-26T14:50:27.595Z,60.80
2019-05-26T14:52:56.408Z,61.30
2019-05-26T14:55:25.137Z,60.80
2019-05-26T14:57:53.849Z,59.50
2019-05-26T15:00:22.914Z,59.60
2019-05-26T15:02:51.551Z,59.20
2019-05-26T15:05:20.286Z,60.00
2019-05-26T15:07:48.980Z,58.90
2019-05-26T15:10:17.738Z,58.20
2019-05-26T15:12:46.387Z,58.30
2019-05-26T15:15:15.532Z,57.00
2019-05-26T15:17:44.192Z,58.10
2019-05-26T15:20:13.493Z,58.70
2019-05-26T15:22:42.408Z,58.50
2019-05-26T15:25:11.090Z,58.90
2019-05-26T15:27:39.944Z,58.80
2019-05-26T15:30:11.682Z,59.60
2019-05-26T15:32:40.428Z,59.30
2019-05-26T15:35:09.452Z,59.00
2019-05-26T15:37:38.334Z,58.20
2019-05-26T15:40:08.534Z,59.00
2019-05-26T15:42:37.220Z,58.20
2019-05-26T15:45:10.536Z,57.70
2019-05-26T15:47:40.661Z,58.50
2019-05-26T15:50:12.798Z,57.80
2019-05-26T15:52:40.181Z,57.50
2019-05-26T15:55:09.003Z,58.30
2019-05-26T15:57:37.909Z,58.10
2019-05-26T16:00:09.990Z,58.20
2019-05-26T16:02:42.495Z,58.80
2019-05-26T16:05:11.712Z,59.40
2019-05-26T16:07:40.436Z,58.50
2019-05-26T16:10:09.804Z,59.10
2019-05-26T16:12:38.462Z,59.20
2019-05-26T16:15:08.225Z,58.60
2019-05-26T16:17:38.890Z,57.90
2019-05-26T16:20:11.387Z,58.30
2019-05-26T16:22:40.010Z,58.90
2019-05-26T16:25:08.852Z,58.70
2019-05-26T16:27:37.573Z,58.90
2019-05-26T16:30:08.546Z,59.70
2019-05-26T16:32:37.271Z,59.60
2019-05-26T16:35:06.347Z,59.10
2019-05-26T16:37:35.140Z,58.80
2019-05-26T16:40:07.693Z,58.80
2019-05-26T16:42:36.285Z,59.80
2019-05-26T16:45:07.106Z,59.60
2019-05-26T16:48:09.385Z,59.20
2019-05-26T16:50:40.775Z,59.20
2019-05-26T16:53:09.371Z,59.60
2019-05-26T16:55:38.027Z,59.40
2019-05-26T16:58:07.080Z,60.00
2019-05-26T17:00:35.924Z,60.30
2019-05-26T17:03:05.205Z,60.20
2019-05-26T17:05:35.497Z,61.00
2019-05-26T17:08:04.193Z,60.20
2019-05-26T17:10:32.867Z,60.30
2019-05-26T17:13:01.561Z,60.40
2019-05-26T17:15:30.191Z,61.30
2019-05-26T17:17:58.932Z,61.90
2019-05-26T17:20:27.749Z,62.10
2019-05-26T17:22:56.401Z,62.80
2019-05-26T17:25:25.566Z,63.80
2019-05-26T17:27:54.171Z,65.40
2019-05-26T17:30:23.429Z,65.90
2019-05-26T17:32:52.072Z,66.60
2019-05-26T17:35:20.823Z,67.30
2019-05-26T17:37:49.463Z,67.80
2019-05-26T17:40:19.811Z,68.70
2019-05-26T17:42:48.560Z,69.40
2019-05-26T17:45:17.406Z,69.70
2019-05-26T17:47:46.127Z,70.50
2019-05-26T17:50:15.499Z,71.10
2019-05-26T17:52:44.231Z,70.40
2019-05-26T17:55:13.423Z,69.80
2019-05-26T17:57:42.142Z,70.60
2019-05-26T18:00:12.777Z,71.90
2019-05-26T18:02:41.584Z,70.70
2019-05-26T18:05:10.779Z,70.80
2019-05-26T18:07:39.421Z,71.10
2019-05-26T18:10:08.680Z,72.40
2019-05-26T18:12:37.325Z,72.70
2019-05-26T18:15:08.310Z,73.50
2019-05-26T18:17:46.254Z,74.50
2019-05-26T18:20:08.195Z,76.00
2019-05-26T18:22:37.152Z,76.80
2019-05-26T18:25:08.119Z,77.80
2019-05-26T18:27:36.855Z,78.50
2019-05-26T18:30:07.083Z,80.00
2019-05-26T18:32:35.856Z,80.90
2019-05-26T18:35:06.880Z,81.20
2019-05-26T18:37:35.609Z,83.10
2019-05-26T18:40:08.122Z,84.80
2019-05-26T18:42:36.927Z,84.10
2019-05-26T18:45:07.296Z,85.50
2019-05-26T18:47:36.354Z,85.10
2019-05-26T18:50:06.116Z,86.30
2019-05-26T18:52:34.968Z,87.70
2019-05-26T18:55:07.276Z,88.30
2019-05-26T18:57:35.884Z,90.10
2019-05-26T19:00:06.819Z,91.20
2019-05-26T19:02:35.590Z,92.10
2019-05-26T19:05:06.647Z,92.70
2019-05-26T19:07:35.409Z,93.70
2019-05-26T19:10:05.753Z,94.70
2019-05-26T19:12:34.493Z,94.70
2019-05-26T19:15:04.040Z,95.70
2019-05-26T19:17:32.711Z,95.60
2019-05-26T19:20:14.869Z,96.70
2019-05-26T19:22:32.252Z,96.90
2019-05-26T19:25:00.943Z,96.80
2019-05-26T19:27:29.736Z,96.80
2019-05-26T19:29:58.496Z,96.50
2019-05-26T19:32:27.509Z,96.90
2019-05-26T19:34:56.398Z,97.20
2019-05-26T19:37:26.071Z,97.10
2019-05-26T19:39:54.977Z,97.40
2019-05-26T19:42:23.612Z,98.10
2019-05-26T19:44:52.780Z,98.30
2019-05-26T19:47:21.515Z,98.50
2019-05-26T19:49:50.176Z,99.10
2019-05-26T19:52:19.081Z,99.50
2019-05-26T19:54:47.883Z,99.70
2019-05-26T19:57:16.583Z,99.90
2019-05-26T19:59:48.967Z,99.90
2019-05-26T20:02:20.422Z,99.90
2019-05-26T20:04:48.875Z,99.90
2019-05-26T20:07:17.738Z,99.90
2019-05-26T20:09:46.502Z,99.90
2019-05-26T20:12:15.322Z,99.90
2019-05-26T20:14:44.143Z,99.90
2019-05-26T20:17:12.945Z,99.90
2019-05-26T20:19:41.734Z,99.90
2019-05-26T20:22:10.908Z,99.90
2019-05-26T20:24:39.630Z,99.90
2019-05-26T20:27:08.717Z,99.90
2019-05-26T20:29:40.121Z,99.90
2019-05-26T20:32:08.920Z,99.90
2019-05-26T20:34:38.031Z,99.90
2019-05-26T20:37:06.883Z,99.90
2019-05-26T20:39:37.265Z,99.90
2019-05-26T20:42:06.473Z,99.90
2019-05-26T20:44:35.763Z,99.90
2019-05-26T20:47:04.635Z,99.90
2019-05-26T20:49:45.044Z,99.90
2019-05-26T20:52:04.624Z,99.90
2019-05-26T20:54:33.791Z,99.90
2019-05-26T20:57:02.592Z,99.90
2019-05-26T20:59:31.472Z,99.90
2019-05-26T21:02:00.508Z,99.90
2019-05-26T21:04:29.195Z,99.90
2019-05-26T21:06:58.056Z,99.90
2019-05-26T21:09:26.863Z,99.90
2019-05-26T21:11:55.732Z,99.90
2019-05-26T21:14:24.383Z,99.90
2019-05-26T21:16:53.237Z,99.90
2019-05-26T21:19:22.111Z,99.90
2019-05-26T21:21:50.944Z,99.90
2019-05-26T21:24:19.785Z,99.90
2019-05-26T21:26:48.592Z,99.90
2019-05-26T21:29:17.482Z,99.90
2019-05-26T21:31:46.267Z,99.90
2019-05-26T21:34:15.393Z,99.90
2019-05-26T21:36:44.449Z,99.90
2019-05-26T21:39:13.192Z,99.90
2019-05-26T21:41:41.956Z,99.90
2019-05-26T21:44:10.771Z,99.90
2019-05-26T21:46:39.507Z,99.90
2019-05-26T21:49:08.345Z,99.90
2019-05-26T21:51:37.102Z,99.90
2019-05-26T21:54:05.841Z,99.90
2019-05-26T21:56:34.690Z,99.90
2019-05-26T21:59:03.561Z,99.90
2019-05-26T22:01:32.591Z,99.90
2019-05-26T22:04:01.441Z,99.90
2019-05-26T22:06:30.342Z,99.90
2019-05-26T22:08:59.019Z,99.90
2019-05-26T22:11:27.711Z,99.90
2019-05-26T22:13:56.438Z,99.90
2019-05-26T22:16:25.107Z,99.90
2019-05-26T22:18:53.846Z,99.90
2019-05-26T22:21:24.318Z,99.90
2019-05-26T22:23:53.539Z,99.90
2019-05-26T22:26:22.556Z,99.90
2019-05-26T22:28:51.516Z,99.90
2019-05-26T22:31:20.409Z,99.90
2019-05-26T22:33:49.045Z,99.90
2019-05-26T22:36:17.854Z,99.90
2019-05-26T22:38:46.678Z,99.90
2019-05-26T22:41:15.325Z,99.90
2019-05-26T22:43:44.243Z,99.90
2019-05-26T22:46:13.245Z,99.90
2019-05-26T22:48:42.127Z,99.90
2019-05-26T22:51:11.053Z,99.90
2019-05-26T22:53:39.910Z,99.90
2019-05-26T22:56:08.813Z,99.90
2019-05-26T22:58:37.732Z,99.90
2019-05-26T23:01:06.926Z,99.90
2019-05-26T23:03:36.149Z,99.90
2019-05-26T23:06:05.154Z,99.90
2019-05-26T23:08:34.291Z,99.90
2019-05-26T23:11:03.247Z,99.90
2019-05-26T23:13:32.236Z,99.90
2019-05-26T23:16:01.229Z,99.90
2019-05-26T23:18:30.095Z,99.90
2019-05-26T23:20:59.158Z,99.90
2019-05-26T23:23:27.887Z,99.90
2019-05-26T23:25:56.928Z,99.90
2019-05-26T23:28:25.819Z,99.90
2019-05-26T23:30:54.706Z,99.90
2019-05-26T23:33:23.550Z,99.90
2019-05-26T23:35:52.241Z,99.90
2019-05-26T23:38:21.078Z,99.90
2019-05-26T23:40:49.769Z,99.90
2019-05-26T23:43:18.501Z,99.90
2019-05-26T23:45:47.237Z,99.90
2019-05-26T23:48:15.975Z,99.90
2019-05-26T23:50:44.766Z,99.90
2019-05-26T23:53:13.408Z,99.90
2019-05-26T23:55:42.051Z,99.90
2019-05-26T23:58:10.833Z,99.90
